Time;durP1;ratioP1;P1;durP2;ratioP2;P2;SDS_P1;SDS_P2;PMS_P1;PMS_P2;Temp;Humidity;BMP_temperature;BMP_pressure;BME280_temperature;BME280_humidity;BME280_pressure;Samples;Min_cycle;Max_cycle;Signal;HPM_P1;HPM_P2
2022/10/05 00:07:47;;;;;;;0.20;0.00;;;18.60;99.90;;;;;;21259737;28;20244;-71
2022/10/05 00:17:51;;;;;;;0.20;0.00;;;18.80;99.90;;;;;;21242302;28;20237;-69
2022/10/05 00:27:58;;;;;;;0.20;0.10;;;18.90;99.90;;;;;;21259350;28;20217;-70
2022/10/05 00:38:02;;;;;;;0.20;0.10;;;18.90;99.90;;;;;;21255224;28;20220;-69
2022/10/05 00:48:17;;;;;;;0.20;0.00;;;18.20;99.90;;;;;;21259804;28;20192;-68
2022/10/05 00:58:30;;;;;;;0.20;0.00;;;17.90;99.90;;;;;;21258726;28;20231;-69
2022/10/05 01:08:43;;;;;;;0.20;0.00;;;17.80;99.90;;;;;;21257524;28;20226;-68
2022/10/05 01:18:53;;;;;;;0.20;0.00;;;17.60;99.90;;;;;;21256594;28;20244;-68
2022/10/05 01:29:03;;;;;;;0.20;0.00;;;17.60;99.90;;;;;;21238545;28;20200;-68
2022/10/05 01:39:17;;;;;;;0.20;0.10;;;17.50;99.90;;;;;;21191060;28;20219;-69
2022/10/05 01:49:36;;;;;;;0.20;0.00;;;17.50;99.90;;;;;;21170258;28;20203;-69
2022/10/05 01:59:59;;;;;;;0.20;0.00;;;17.40;99.90;;;;;;21169523;28;20191;-69
2022/10/05 02:10:09;;;;;;;0.20;0.00;;;17.20;99.90;;;;;;21150951;28;20270;-68
2022/10/05 02:20:18;;;;;;;0.20;0.00;;;17.00;99.90;;;;;;21150686;28;20188;-70
2022/10/05 02:30:23;;;;;;;0.20;0.10;;;17.10;99.90;;;;;;21167436;28;20237;-69
2022/10/05 02:40:38;;;;;;;0.20;0.00;;;17.10;99.90;;;;;;21154835;28;20210;-70
2022/10/05 02:50:51;;;;;;;0.20;0.10;;;17.20;99.90;;;;;;21153661;28;20223;-69
2022/10/05 03:01:00;;;;;;;0.20;0.00;;;17.10;99.90;;;;;;21230744;28;20217;-70
2022/10/05 03:11:12;;;;;;;0.20;0.10;;;17.30;99.90;;;;;;21249888;28;20241;-69
2022/10/05 03:21:26;;;;;;;0.20;0.00;;;17.10;99.90;;;;;;21249584;28;20211;-70
2022/10/05 03:31:39;;;;;;;0.20;0.10;;;17.10;99.90;;;;;;21245070;28;20222;-69
2022/10/05 03:41:47;;;;;;;0.20;0.00;;;17.00;99.90;;;;;;21173693;28;20192;-70
2022/10/05 03:51:59;;;;;;;0.20;0.10;;;17.00;99.90;;;;;;21202870;28;20245;-70
2022/10/05 04:02:06;;;;;;;0.20;0.10;;;16.90;99.90;;;;;;21155005;28;20215;-69
2022/10/05 04:12:16;;;;;;;0.20;0.10;;;17.10;99.90;;;;;;21173329;28;20224;-69
2022/10/05 04:22:22;;;;;;;0.20;0.00;;;17.10;99.90;;;;;;21175863;28;20185;-70
2022/10/05 04:32:37;;;;;;;0.20;0.10;;;17.10;99.90;;;;;;21157659;28;20220;-68
2022/10/05 04:42:47;;;;;;;0.20;0.00;;;17.10;99.90;;;;;;21174477;28;20180;-69
2022/10/05 04:53:00;;;;;;;0.20;0.00;;;17.00;99.90;;;;;;21172740;28;20269;-69
2022/10/05 05:03:31;;;;;;;0.20;0.10;;;17.00;99.90;;;;;;21154286;28;20231;-70
2022/10/05 05:14:09;;;;;;;0.20;0.00;;;17.00;99.90;;;;;;21171727;28;20254;-69
2022/10/05 05:24:23;;;;;;;0.20;0.00;;;17.10;99.90;;;;;;21129058;28;20229;-70
2022/10/05 05:34:39;;;;;;;0.20;0.00;;;17.00;99.90;;;;;;21168321;28;20215;-68
2022/10/05 05:44:47;;;;;;;0.20;0.10;;;16.90;99.90;;;;;;21166891;28;20213;-68
2022/10/05 05:54:57;;;;;;;0.20;0.00;;;16.60;99.90;;;;;;21160605;28;20220;-69
2022/10/05 06:05:10;;;;;;;0.20;0.00;;;16.70;99.90;;;;;;21123758;28;20304;-67
2022/10/05 06:15:24;;;;;;;0.20;0.10;;;16.70;99.90;;;;;;21173376;28;20219;-70
2022/10/05 06:25:35;;;;;;;0.20;0.10;;;16.90;99.90;;;;;;21230185;28;20183;-68
2022/10/05 06:35:56;;;;;;;0.20;0.00;;;17.10;99.90;;;;;;21247161;28;20230;-68
2022/10/05 06:46:12;;;;;;;0.20;0.10;;;17.50;99.90;;;;;;21248174;28;20194;-69
2022/10/05 06:56:24;;;;;;;0.20;0.00;;;17.90;99.90;;;;;;21246826;28;20218;-72
2022/10/05 07:06:35;;;;;;;0.20;0.00;;;18.50;99.90;;;;;;21244674;28;20215;-70
2022/10/05 07:16:51;;;;;;;0.20;0.10;;;18.90;99.90;;;;;;21236450;28;20218;-70
2022/10/05 07:27:03;;;;;;;0.20;0.10;;;19.50;99.90;;;;;;21263733;28;20215;-69
2022/10/05 07:47:38;;;;;;;0.20;0.10;;;21.00;99.90;;;;;;21261464;28;20184;-69
2022/10/05 07:57:52;;;;;;;0.20;0.00;;;21.30;99.90;;;;;;21258513;28;20242;-70
2022/10/05 08:08:04;;;;;;;0.20;0.00;;;21.40;99.90;;;;;;21258066;28;20219;-68
2022/10/05 08:18:17;;;;;;;0.20;0.00;;;21.70;99.90;;;;;;21257321;28;20242;-68
2022/10/05 08:28:25;;;;;;;0.20;0.00;;;21.90;99.90;;;;;;21240846;28;20187;-68
2022/10/05 08:38:33;;;;;;;0.20;0.00;;;22.30;99.90;;;;;;21255885;28;20241;-68
2022/10/05 08:49:13;;;;;;;0.20;0.00;;;22.40;99.90;;;;;;21233124;28;20191;-68
2022/10/05 08:59:50;;;;;;;0.20;0.00;;;22.50;99.90;;;;;;21249101;28;20222;-69
2022/10/05 09:10:25;;;;;;;0.20;0.20;;;22.70;99.90;;;;;;21232416;28;20421;-68
2022/10/05 09:20:31;;;;;;;0.20;0.00;;;22.70;99.90;;;;;;21208818;28;20228;-68
2022/10/05 09:30:52;;;;;;;0.20;0.00;;;22.90;99.90;;;;;;21250778;28;20274;-69
2022/10/05 09:41:36;;;;;;;0.20;0.00;;;22.80;99.90;;;;;;21224900;28;20196;-69
2022/10/05 09:52:33;;;;;;;0.20;0.00;;;22.90;99.90;;;;;;21233537;28;20215;-69
2022/10/05 10:03:12;;;;;;;0.20;0.00;;;23.50;99.90;;;;;;21177768;28;20238;-69
2022/10/05 10:13:38;;;;;;;0.20;0.00;;;23.70;99.90;;;;;;21242404;28;20420;-69
2022/10/05 10:24:19;;;;;;;0.20;0.00;;;24.00;99.90;;;;;;21243739;28;20187;-68
2022/10/05 10:34:43;;;;;;;0.20;0.10;;;24.10;99.90;;;;;;21190815;28;20253;-69
2022/10/05 10:45:27;;;;;;;0.20;0.00;;;24.60;99.90;;;;;;21206500;28;20187;-68
2022/10/05 10:55:37;;;;;;;0.20;0.00;;;24.90;99.90;;;;;;21219287;28;20226;-68
2022/10/05 11:06:10;;;;;;;0.20;0.00;;;25.20;99.90;;;;;;21207355;28;20271;-69
2022/10/05 11:16:46;;;;;;;0.20;0.10;;;25.10;99.90;;;;;;21222623;28;20232;-68
2022/10/05 11:27:12;;;;;;;0.20;0.00;;;26.00;99.90;;;;;;21211378;28;20183;-69
2022/10/05 11:38:00;;;;;;;0.20;0.00;;;26.10;99.90;;;;;;21216924;28;20274;-69
2022/10/05 11:48:34;;;;;;;0.20;0.00;;;27.30;99.90;;;;;;21220261;28;20184;-70
2022/10/05 11:58:47;;;;;;;0.20;0.00;;;27.10;99.90;;;;;;21226042;28;20223;-70
2022/10/05 12:09:04;;;;;;;0.20;0.00;;;27.10;99.90;;;;;;21257156;28;20219;-70
2022/10/05 12:19:16;;;;;;;0.20;0.00;;;27.40;99.90;;;;;;21258031;28;20215;-69
2022/10/05 12:29:27;;;;;;;0.20;0.00;;;26.90;99.90;;;;;;21242946;28;20217;-68
2022/10/05 12:39:40;;;;;;;0.20;0.00;;;26.90;99.90;;;;;;21228211;28;20272;-68
2022/10/05 12:50:03;;;;;;;0.20;0.10;;;27.90;99.90;;;;;;21250714;28;20205;-74
2022/10/05 13:00:11;;;;;;;0.20;0.05;;;27.00;99.90;;;;;;21250707;28;20214;-69
2022/10/05 13:10:29;;;;;;;0.20;0.00;;;27.60;99.90;;;;;;21252608;28;20252;-70
2022/10/05 13:20:41;;;;;;;0.20;0.00;;;28.00;99.90;;;;;;21236237;28;20219;-69
2022/10/05 13:30:53;;;;;;;0.20;0.00;;;29.00;99.90;;;;;;21250150;28;20847;-70
2022/10/05 13:41:10;;;;;;;0.20;0.00;;;28.40;99.90;;;;;;21229490;28;20211;-69
2022/10/05 13:51:19;;;;;;;0.20;0.00;;;28.30;99.90;;;;;;21251270;28;20236;-69
2022/10/05 14:01:35;;;;;;;0.20;0.00;;;29.10;99.90;;;;;;21230982;28;20223;-71
2022/10/05 14:11:48;;;;;;;0.20;0.00;;;29.20;99.90;;;;;;21232361;28;20213;-72
2022/10/05 14:22:00;;;;;;;0.20;0.00;;;28.70;99.90;;;;;;21248972;28;20275;-70
2022/10/05 14:32:14;;;;;;;0.20;0.10;;;28.70;99.90;;;;;;21192666;28;20212;-69
2022/10/05 14:42:22;;;;;;;0.20;0.00;;;29.10;99.90;;;;;;21165355;28;20199;-71
2022/10/05 14:52:31;;;;;;;0.20;0.00;;;28.40;99.90;;;;;;21246589;28;21106;-69
2022/10/05 15:02:53;;;;;;;0.20;0.00;;;29.10;99.90;;;;;;21227596;28;20283;-70
2022/10/05 15:13:00;;;;;;;0.20;0.00;;;29.00;99.90;;;;;;21243714;28;20254;-69
2022/10/05 15:23:23;;;;;;;0.20;0.00;;;29.10;99.90;;;;;;21242890;28;20236;-70
2022/10/05 15:33:34;;;;;;;0.20;0.00;;;28.30;99.90;;;;;;21196980;28;20219;-69
2022/10/05 15:43:53;;;;;;;0.20;0.00;;;26.70;99.90;;;;;;21176173;28;20188;-70
2022/10/05 16:04:42;;;;;;;0.20;0.00;;;26.10;99.90;;;;;;21131026;28;20224;-68
2022/10/05 16:15:05;;;;;;;0.20;0.00;;;24.70;99.90;;;;;;21153616;28;20246;-69
2022/10/05 16:25:17;;;;;;;0.20;0.00;;;24.40;99.90;;;;;;21170398;28;20215;-68
2022/10/05 16:35:30;;;;;;;0.20;0.00;;;24.30;99.90;;;;;;21216641;28;20219;-69
2022/10/05 16:45:47;;;;;;;0.20;0.00;;;24.10;99.90;;;;;;21227084;28;20213;-71
2022/10/05 16:55:55;;;;;;;0.20;0.00;;;23.90;99.90;;;;;;21247721;28;20240;-69
2022/10/05 17:06:23;;;;;;;0.20;0.00;;;23.60;99.90;;;;;;21246579;28;20231;-70
2022/10/05 17:16:37;;;;;;;0.20;0.00;;;23.40;99.90;;;;;;21250959;28;20227;-69
2022/10/05 17:26:56;;;;;;;0.20;0.00;;;23.30;99.90;;;;;;21231514;28;20183;-70
2022/10/05 17:37:17;;;;;;;0.20;0.00;;;23.00;99.90;;;;;;21202638;28;20294;-69
2022/10/05 17:47:56;;;;;;;0.20;0.00;;;22.80;99.90;;;;;;21231298;28;20191;-70
2022/10/05 17:58:21;;;;;;;0.20;0.00;;;22.50;99.90;;;;;;21229249;28;20215;-69
2022/10/05 18:08:36;;;;;;;0.20;0.00;;;22.60;99.90;;;;;;21248653;28;20227;-70
2022/10/05 18:18:56;;;;;;;0.20;0.00;;;22.30;99.90;;;;;;21229423;28;20222;-69
2022/10/05 18:30:01;;;;;;;0.20;0.00;;;21.60;99.90;;;;;;21240945;28;20540;-70
2022/10/05 18:40:15;;;;;;;0.20;0.00;;;21.00;99.90;;;;;;21183128;28;20228;-70
2022/10/05 18:50:28;;;;;;;0.20;0.00;;;20.80;99.90;;;;;;21176298;28;20199;-70
2022/10/05 19:00:51;;;;;;;0.20;0.00;;;20.60;99.90;;;;;;21247183;28;20244;-70
2022/10/05 19:11:04;;;;;;;0.20;0.00;;;20.50;99.90;;;;;;21254259;28;20245;-71
2022/10/05 19:21:20;;;;;;;0.20;0.10;;;20.40;99.90;;;;;;21263373;28;20845;-70
2022/10/05 19:31:33;;;;;;;0.20;0.00;;;20.30;99.90;;;;;;21254496;28;20412;-70
2022/10/05 19:41:53;;;;;;;0.20;0.00;;;20.20;99.90;;;;;;21259407;28;20245;-71
2022/10/05 19:51:58;;;;;;;0.20;0.00;;;20.20;99.90;;;;;;21241240;28;20187;-70
2022/10/05 20:02:02;;;;;;;0.20;0.00;;;20.10;99.90;;;;;;21259659;28;20747;-70
2022/10/05 20:12:07;;;;;;;0.20;0.10;;;20.30;99.90;;;;;;21256204;28;20203;-70
2022/10/05 20:22:26;;;;;;;0.20;0.10;;;20.40;99.90;;;;;;21257443;27;20259;-70
2022/10/05 20:32:31;;;;;;;0.20;0.00;;;20.40;99.90;;;;;;21279097;27;20183;-70
2022/10/05 20:42:35;;;;;;;0.20;0.00;;;20.60;99.90;;;;;;21299832;27;20186;-69
2022/10/05 20:52:41;;;;;;;0.20;0.00;;;20.40;99.90;;;;;;21298658;27;20212;-69
2022/10/05 21:02:45;;;;;;;0.20;0.10;;;20.30;99.90;;;;;;21276761;27;20207;-70
2022/10/05 21:12:50;;;;;;;0.20;0.00;;;20.20;99.90;;;;;;21256466;28;20215;-70
2022/10/05 21:22:54;;;;;;;0.20;0.10;;;20.00;99.90;;;;;;21256331;28;20179;-69
2022/10/05 21:32:59;;;;;;;0.20;0.10;;;19.70;99.90;;;;;;21260232;27;20195;-69
2022/10/05 21:43:03;;;;;;;0.20;0.10;;;19.70;99.90;;;;;;21295097;27;20198;-70
2022/10/05 21:53:11;;;;;;;0.20;0.10;;;19.70;99.90;;;;;;21274528;27;20211;-70
2022/10/05 22:03:15;;;;;;;0.20;0.00;;;19.80;99.90;;;;;;21275882;27;20244;-69
2022/10/05 22:13:24;;;;;;;0.20;0.07;;;19.60;99.90;;;;;;21289828;27;20284;-70
2022/10/05 22:23:28;;;;;;;0.20;0.10;;;19.70;99.90;;;;;;21290097;27;20217;-70
2022/10/05 22:33:33;;;;;;;0.20;0.10;;;19.70;99.90;;;;;;21289370;27;20218;-70
2022/10/05 22:43:37;;;;;;;0.20;0.10;;;19.70;99.90;;;;;;21291754;27;20187;-70
2022/10/05 22:53:43;;;;;;;0.20;0.00;;;19.60;99.90;;;;;;21287806;27;20218;-70
2022/10/05 23:03:47;;;;;;;0.20;0.00;;;19.50;99.90;;;;;;21289909;28;20214;-70
2022/10/05 23:13:52;;;;;;;0.20;0.10;;;19.50;99.90;;;;;;21271567;28;20218;-70
2022/10/05 23:23:56;;;;;;;0.20;0.00;;;19.40;99.90;;;;;;21289217;28;20183;-70
2022/10/05 23:34:01;;;;;;;0.20;0.10;;;19.30;99.90;;;;;;21284508;28;20219;-69
2022/10/05 23:44:04;;;;;;;0.20;0.10;;;19.40;99.90;;;;;;21267790;28;20183;-69
2022/10/05 23:54:10;;;;;;;0.20;0.10;;;19.40;99.90;;;;;;21289261;27;20395;-69
